Time;durP1;ratioP1;P1;durP2;ratioP2;P2;SDS_P1;SDS_P2;PMS_P1;PMS_P2;Temp;Humidity;BMP_temperature;BMP_pressure;BME280_temperature;BME280_humidity;BME280_pressure;Samples;Min_cycle;Max_cycle;Signal;HPM_P1;HPM_P2
2022/06/17 00:01:39;;;;;;;12.48;3.28;;;;;;;20.35;54.56;100999.38;5138209;27;20034;-85
2022/06/17 00:04:05;;;;;;;10.32;2.65;;;;;;;20.36;53.36;101001.06;5138271;27;20027;-86
2022/06/17 00:06:43;;;;;;;9.05;2.08;;;;;;;20.31;53.52;100998.00;5138550;27;20057;-85
2022/06/17 00:09:13;;;;;;;3.63;2.42;;;;;;;20.33;53.59;101006.03;5138097;27;20072;-87
2022/06/17 00:11:39;;;;;;;5.93;2.45;;;;;;;20.20;53.88;100979.25;5138089;27;20034;-86
2022/06/17 00:14:20;;;;;;;6.10;2.28;;;;;;;20.23;53.67;100978.91;5138599;27;20023;-85
2022/06/17 00:16:46;;;;;;;5.75;2.05;;;;;;;20.23;53.39;100989.84;5139292;27;20031;-86
2022/06/17 00:19:13;;;;;;;8.10;2.47;;;;;;;20.13;53.44;100981.00;5138402;27;20027;-86
2022/06/17 00:21:43;;;;;;;5.70;2.40;;;;;;;20.17;53.97;100985.09;5137896;27;20030;-86
2022/06/17 00:24:14;;;;;;;7.13;2.47;;;;;;;20.16;54.35;100988.84;5138053;27;20027;-85
2022/06/17 00:26:39;;;;;;;8.95;2.40;;;;;;;19.92;54.51;100983.47;5138409;27;20070;-86
2022/06/17 00:29:05;;;;;;;11.90;3.33;;;;;;;19.98;54.71;100985.50;5137615;27;20509;-86
2022/06/17 00:31:30;;;;;;;3.92;2.38;;;;;;;19.96;55.03;100977.50;5137403;27;20027;-86
2022/06/17 00:33:56;;;;;;;4.53;2.47;;;;;;;19.90;55.03;100980.09;5136139;27;20088;-86
2022/06/17 00:36:21;;;;;;;4.03;2.00;;;;;;;19.77;54.95;100971.59;5137310;27;20027;-85
2022/06/17 00:38:47;;;;;;;5.75;2.13;;;;;;;19.83;55.17;100979.06;5137552;27;20030;-85
2022/06/17 00:41:21;;;;;;;4.53;2.30;;;;;;;19.92;55.28;100980.75;5137443;27;20156;-86
2022/06/17 00:43:46;;;;;;;10.40;2.13;;;;;;;19.85;54.56;100968.81;5137253;27;20036;-85
2022/06/17 00:46:33;;;;;;;5.18;2.33;;;;;;;19.93;54.50;100977.84;5136676;27;20054;-85
2022/06/17 00:49:18;;;;;;;4.18;2.35;;;;;;;19.91;54.61;100979.03;5136434;27;20393;-85
2022/06/17 00:52:02;;;;;;;3.65;2.30;;;;;;;19.86;54.53;100976.00;5118738;27;20023;-84
2022/06/17 00:54:45;;;;;;;13.77;3.67;;;;;;;19.76;54.63;100961.69;5137252;27;20026;-86
2022/06/17 00:57:21;;;;;;;18.33;3.40;;;;;;;19.89;54.90;100971.03;5118392;27;20103;-85
2022/06/17 01:00:21;;;;;;;7.40;2.70;;;;;;;19.94;55.29;100975.94;5136822;27;20023;-85
2022/06/17 01:02:49;;;;;;;5.80;2.88;;;;;;;19.98;55.29;100980.91;5086082;27;20087;-86
2022/06/17 01:05:18;;;;;;;8.68;3.85;;;;;;;19.98;55.27;100966.38;5136786;27;20023;-85
2022/06/17 01:07:58;;;;;;;7.40;2.83;;;;;;;19.94;54.77;100954.97;5137167;27;20502;-85
2022/06/17 01:10:24;;;;;;;19.73;3.20;;;;;;;19.98;54.99;100966.38;5136594;27;20093;-85
2022/06/17 01:12:57;;;;;;;12.82;3.05;;;;;;;19.93;55.24;100964.22;5136694;27;20030;-85
2022/06/17 01:15:26;;;;;;;13.93;3.22;;;;;;;19.97;55.27;100961.94;5118618;27;20015;-86
2022/06/17 01:17:52;;;;;;;9.35;3.25;;;;;;;19.93;55.81;100960.63;5136658;27;20023;-86
2022/06/17 01:20:19;;;;;;;6.75;3.15;;;;;;;20.04;55.58;100977.47;5136537;27;20034;-87
2022/06/17 01:22:49;;;;;;;6.53;3.03;;;;;;;20.02;55.30;100978.66;5136489;27;20023;-87
2022/06/17 01:25:27;;;;;;;7.28;2.45;;;;;;;20.00;55.38;100961.59;5117864;27;20023;-87
2022/06/17 01:27:58;;;;;;;11.10;3.42;;;;;;;19.93;55.60;100958.75;5136418;27;20464;-86
2022/06/17 01:30:28;;;;;;;6.05;2.88;;;;;;;19.87;55.66;100961.31;5118243;27;20019;-85
2022/06/17 01:32:57;;;;;;;13.13;3.55;;;;;;;19.76;56.00;100968.00;5148877;27;20024;-85
2022/06/17 01:35:30;;;;;;;12.02;3.33;;;;;;;19.74;55.98;100952.84;5132242;27;20019;-85
2022/06/17 01:37:57;;;;;;;7.47;3.47;;;;;;;19.78;55.78;100951.47;5150240;27;20019;-87
2022/06/17 01:40:28;;;;;;;10.27;3.92;;;;;;;19.76;56.02;100958.97;5152326;27;20027;-85
2022/06/17 01:42:54;;;;;;;10.20;3.83;;;;;;;19.77;56.12;100956.06;5149891;27;20023;-86
2022/06/17 01:45:20;;;;;;;11.98;3.95;;;;;;;19.72;55.91;100941.25;5156038;27;20052;-86
2022/06/17 01:47:46;;;;;;;9.40;3.55;;;;;;;19.69;55.85;100939.75;5155928;27;20027;-86
2022/06/17 01:50:19;;;;;;;15.00;3.42;;;;;;;19.68;56.33;100942.63;5156017;27;20011;-86
2022/06/17 01:52:52;;;;;;;11.30;3.58;;;;;;;19.62;56.30;100946.06;5154392;27;20023;-86
2022/06/17 01:55:39;;;;;;;10.23;3.70;;;;;;;19.51;56.19;100928.16;5125996;27;20027;-87
2022/06/17 01:58:07;;;;;;;14.45;3.88;;;;;;;19.53;56.57;100935.19;5135159;27;20116;-86
2022/06/17 02:00:33;;;;;;;12.23;3.05;;;;;;;19.51;56.42;100929.03;5135429;27;20087;-86
2022/06/17 02:03:08;;;;;;;10.05;3.13;;;;;;;19.56;56.14;100928.50;5117226;27;20126;-86
2022/06/17 02:05:36;;;;;;;11.60;3.13;;;;;;;19.58;56.08;100931.91;5116571;27;20053;-86
2022/06/17 02:08:04;;;;;;;8.63;2.97;;;;;;;19.63;55.67;100942.31;5134806;27;20106;-86
2022/06/17 02:10:36;;;;;;;16.45;3.60;;;;;;;19.63;55.43;100929.50;5135590;27;20030;-87
2022/06/17 02:13:03;;;;;;;;;;;;;;;19.61;55.35;100933.44;5137982;27;20484;-84
2022/06/17 02:15:29;;;;;;;6.40;3.08;;;;;;;19.54;55.53;100934.13;5116778;27;19907;-86
2022/06/17 02:17:55;;;;;;;9.15;2.92;;;;;;;19.50;55.36;100916.44;5135003;27;20110;-85
2022/06/17 02:20:23;;;;;;;7.10;3.15;;;;;;;19.54;55.79;100917.75;5134951;27;20034;-87
2022/06/17 02:22:50;;;;;;;10.00;3.70;;;;;;;19.59;56.03;100919.97;5135309;27;20399;-86
2022/06/17 02:25:20;;;;;;;11.52;3.10;;;;;;;19.69;56.33;100933.41;5135138;27;20023;-86
2022/06/17 02:27:50;;;;;;;11.25;4.00;;;;;;;19.69;56.69;100925.22;5134902;27;20450;-87
2022/06/17 02:30:15;;;;;;;13.45;3.22;;;;;;;19.77;56.02;100928.78;5135020;28;20054;-86
2022/06/17 02:32:42;;;;;;;12.93;3.42;;;;;;;19.73;57.08;100932.00;5116643;28;20031;-86
2022/06/17 02:35:32;;;;;;;9.77;3.75;;;;;;;19.71;56.52;100934.94;5116074;28;20023;-86
2022/06/17 02:37:58;;;;;;;21.33;3.90;;;;;;;19.78;56.64;100941.41;5135902;28;20465;-86
2022/06/17 02:40:27;;;;;;;15.18;4.50;;;;;;;19.73;56.78;100935.59;5137580;28;20489;-86
2022/06/17 02:42:53;;;;;;;12.60;3.40;;;;;;;19.68;56.66;100924.38;5137760;28;20039;-87
2022/06/17 02:45:23;;;;;;;13.13;4.60;;;;;;;19.68;56.86;100926.25;5134049;28;20028;-87
2022/06/17 02:47:50;;;;;;;27.65;4.82;;;;;;;19.75;57.56;100951.81;5134553;28;20023;-87
2022/06/17 02:50:28;;;;;;;17.52;4.30;;;;;;;19.74;57.35;100939.19;5134695;28;20031;-87
2022/06/17 02:52:56;;;;;;;27.55;5.80;;;;;;;19.76;56.96;100937.13;5135094;28;20444;-86
2022/06/17 02:55:33;;;;;;;14.65;4.78;;;;;;;19.75;57.42;100941.75;5134646;28;20084;-84
2022/06/17 02:58:21;;;;;;;21.67;5.00;;;;;;;19.73;57.42;100937.47;5134346;28;20060;-87
2022/06/17 03:00:46;;;;;;;12.48;4.43;;;;;;;19.67;57.31;100944.50;5134341;28;20515;-85
2022/06/17 03:03:16;;;;;;;12.55;4.18;;;;;;;19.67;58.06;100941.78;5134525;28;20023;-86
2022/06/17 03:05:44;;;;;;;18.33;4.57;;;;;;;19.67;58.43;100949.09;5115813;28;20030;-86
2022/06/17 03:08:22;;;;;;;10.88;4.32;;;;;;;19.72;58.59;100953.03;5134984;28;20050;-87
2022/06/17 03:10:48;;;;;;;15.25;6.07;;;;;;;19.77;58.28;100949.75;5135582;27;20027;-87
2022/06/17 03:13:22;;;;;;;16.77;5.15;;;;;;;19.82;58.12;100950.06;5138104;27;20083;-87
2022/06/17 03:15:51;;;;;;;21.25;6.47;;;;;;;19.75;57.95;100940.91;5139108;27;20027;-87
2022/06/17 03:18:17;;;;;;;19.00;4.68;;;;;;;19.70;57.59;100932.38;5138950;27;20019;-88
2022/06/17 03:20:46;;;;;;;19.65;6.65;;;;;;;19.65;57.59;100949.28;5138725;27;20025;-87
2022/06/17 03:23:48;;;;;;;33.90;6.70;;;;;;;19.61;57.34;100945.19;5138968;27;20027;-84
2022/06/17 03:26:18;;;;;;;16.05;4.68;;;;;;;19.62;56.87;100946.06;5115298;27;20060;-87
2022/06/17 03:28:53;;;;;;;24.23;5.25;;;;;;;19.62;56.08;100951.50;5139083;27;20047;-87
2022/06/17 03:31:31;;;;;;;14.40;4.72;;;;;;;19.54;56.07;100945.03;5138500;27;20023;-86
2022/06/17 03:34:01;;;;;;;27.02;4.90;;;;;;;19.65;55.79;100945.69;5138587;27;20019;-83
2022/06/17 03:36:48;;;;;;;13.00;3.80;;;;;;;19.65;55.58;100940.25;5139166;27;20425;-88
2022/06/17 03:39:29;;;;;;;16.27;3.92;;;;;;;19.70;55.95;100940.56;5120877;27;20033;-86
2022/06/17 03:42:10;;;;;;;39.97;5.28;;;;;;;19.72;55.91;100942.13;5120126;27;20117;-88
2022/06/17 03:44:56;;;;;;;17.23;3.87;;;;;;;19.77;55.74;100945.16;5138675;27;20066;-88
2022/06/17 03:47:44;;;;;;;17.02;3.85;;;;;;;19.82;55.36;100941.88;5136274;27;20119;-88
2022/06/17 03:50:21;;;;;;;18.67;4.95;;;;;;;19.83;55.62;100927.22;5138365;27;20023;-83
2022/06/17 03:52:59;;;;;;;32.28;5.97;;;;;;;19.92;55.46;100943.38;5138161;27;20019;-87
2022/06/17 03:55:25;;;;;;;49.22;6.97;;;;;;;19.98;55.24;100936.34;5138404;27;20031;-85
2022/06/17 03:57:53;;;;;;;20.88;5.22;;;;;;;20.00;55.20;100939.75;5123818;27;20016;-81
2022/06/17 04:00:29;;;;;;;26.38;5.93;;;;;;;20.08;54.47;100926.06;5117158;28;20028;-89
2022/06/17 04:02:58;;;;;;;20.55;4.85;;;;;;;20.10;53.99;100918.53;5118171;28;20039;-89
2022/06/17 04:05:24;;;;;;;23.80;5.60;;;;;;;20.13;54.16;100923.63;5116300;28;20020;-77
2022/06/17 04:07:49;;;;;;;20.70;5.10;;;;;;;20.16;53.71;100922.44;5115681;28;20027;-78
2022/06/17 04:10:21;;;;;;;24.17;7.50;;;;;;;20.22;54.47;100922.56;5115423;28;20055;-82
2022/06/17 04:12:49;;;;;;;39.95;6.95;;;;;;;20.32;54.94;100919.63;5116405;28;20635;-81
2022/06/17 04:15:31;;;;;;;31.83;6.70;;;;;;;20.34;55.53;100923.88;5116892;28;20057;-88
2022/06/17 04:17:57;;;;;;;21.88;4.78;;;;;;;20.38;54.51;100921.66;5116073;28;20594;-88
2022/06/17 04:20:45;;;;;;;28.25;6.03;;;;;;;20.45;54.46;100928.94;5116107;28;20020;-92
2022/06/17 04:23:15;;;;;;;20.48;5.68;;;;;;;20.53;54.34;100926.16;5115796;27;20506;-82
2022/06/17 04:25:40;;;;;;;28.70;6.03;;;;;;;20.64;54.44;100933.91;5115653;28;20024;-81
2022/06/17 04:28:11;;;;;;;23.67;5.97;;;;;;;20.64;54.26;100922.13;5115761;28;20080;-83
2022/06/17 04:30:44;;;;;;;26.55;6.13;;;;;;;20.73;54.61;100931.13;5116085;28;20483;-85
2022/06/17 04:33:23;;;;;;;25.52;6.40;;;;;;;20.81;54.47;100933.78;5115913;28;20024;-84
2022/06/17 04:36:00;;;;;;;44.20;7.80;;;;;;;20.90;54.37;100932.69;5115765;28;20019;-90
2022/06/17 04:38:29;;;;;;;32.28;7.85;;;;;;;20.95;54.37;100924.78;5115827;28;20145;-87
2022/06/17 04:40:59;;;;;;;29.23;6.25;;;;;;;20.89;54.44;100914.56;5114202;28;20020;-79
2022/06/17 04:43:35;;;;;;;29.85;6.53;;;;;;;20.92;54.52;100908.72;5114468;28;20044;-86
2022/06/17 04:46:13;;;;;;;29.98;7.93;;;;;;;21.04;54.60;100923.66;5114281;28;20111;-81
2022/06/17 04:48:39;;;;;;;45.53;9.65;;;;;;;21.05;54.70;100914.44;5115412;28;20023;-81
2022/06/17 04:51:05;;;;;;;38.58;8.50;;;;;;;21.17;54.97;100921.19;5115805;28;20019;-85
2022/06/17 04:53:32;;;;;;;31.02;7.70;;;;;;;21.22;54.88;100912.44;5115334;28;20027;-80
2022/06/17 04:55:59;;;;;;;40.60;10.40;;;;;;;21.22;55.20;100913.28;5114635;28;20054;-80
2022/06/17 04:58:26;;;;;;;28.63;8.77;;;;;;;21.28;55.23;100926.22;5114300;28;20020;-80
2022/06/17 05:00:54;;;;;;;51.65;9.52;;;;;;;21.36;55.48;100928.00;5113894;28;20401;-85
2022/06/17 05:03:26;;;;;;;46.55;10.13;;;;;;;21.51;55.42;100932.44;5114534;28;20042;-77
2022/06/17 05:05:53;;;;;;;45.08;9.75;;;;;;;21.58;55.21;100932.56;5115449;28;20024;-83
2022/06/17 05:08:25;;;;;;;46.05;12.50;;;;;;;21.66;54.72;100935.19;5116027;28;20102;-86
2022/06/17 05:11:05;;;;;;;25.80;11.25;;;;;;;21.66;54.78;100930.56;5115030;27;20024;-86
2022/06/17 05:13:51;;;;;;;44.83;12.23;;;;;;;21.80;54.17;100942.56;5115004;27;20068;-84
2022/06/17 05:16:16;;;;;;;48.55;11.40;;;;;;;21.82;53.86;100936.88;5114807;28;20500;-84
2022/06/17 05:18:42;;;;;;;45.10;11.15;;;;;;;21.90;54.05;100945.00;5115031;28;20028;-86
2022/06/17 05:21:17;;;;;;;32.72;11.95;;;;;;;21.87;54.10;100932.53;5115286;28;20499;-86
2022/06/17 05:23:42;;;;;;;45.05;11.10;;;;;;;21.94;54.34;100932.66;5113543;28;20496;-85
2022/06/17 05:26:08;;;;;;;46.45;11.32;;;;;;;22.07;54.26;100943.78;5113815;28;20023;-84
2022/06/17 05:28:33;;;;;;;48.13;13.20;;;;;;;22.08;54.20;100923.53;5114720;28;20390;-85
2022/06/17 05:31:00;;;;;;;44.13;12.68;;;;;;;22.20;54.13;100930.22;5114647;28;20037;-85
2022/06/17 05:33:25;;;;;;;45.00;11.80;;;;;;;22.37;53.73;100944.56;5114002;28;20404;-85
2022/06/17 05:35:51;;;;;;;47.13;11.55;;;;;;;22.40;53.36;100936.78;5116503;27;20115;-82
2022/06/17 05:38:17;;;;;;;44.58;11.68;;;;;;;22.52;53.46;100935.25;5116495;27;20151;-80
2022/06/17 05:40:43;;;;;;;47.72;14.80;;;;;;;22.53;52.71;100934.22;5134190;27;20120;-79
2022/06/17 05:43:10;;;;;;;54.53;17.15;;;;;;;22.55;52.52;100932.09;5133971;27;20462;-79
2022/06/17 05:45:35;;;;;;;72.00;17.98;;;;;;;22.52;52.07;100931.66;5133075;27;20023;-79
2022/06/17 05:48:01;;;;;;;53.97;14.38;;;;;;;22.60;51.49;100940.59;5134430;27;20023;-80
2022/06/17 05:50:29;;;;;;;41.45;12.07;;;;;;;22.62;50.96;100948.63;5134124;27;20023;-79
2022/06/17 05:52:56;;;;;;;42.40;10.88;;;;;;;22.68;50.86;100931.44;5133854;27;20015;-79
2022/06/17 05:55:23;;;;;;;39.65;9.75;;;;;;;22.80;50.48;100937.22;5134287;27;20019;-79
2022/06/17 05:57:49;;;;;;;43.90;10.18;;;;;;;22.93;50.23;100940.09;5133930;27;20023;-79
2022/06/17 06:00:16;;;;;;;28.67;11.00;;;;;;;22.74;49.93;100926.00;5134476;27;20030;-79
2022/06/17 06:02:42;;;;;;;34.35;10.90;;;;;;;22.84;49.42;100925.69;5133893;27;20023;-79
2022/06/17 06:05:11;;;;;;;28.05;7.50;;;;;;;23.00;48.53;100935.50;5134075;27;20023;-79
2022/06/17 06:07:36;;;;;;;30.13;8.35;;;;;;;22.99;48.12;100929.19;5133646;27;20079;-79
2022/06/17 06:10:03;;;;;;;26.52;7.10;;;;;;;23.02;47.70;100930.69;5133791;27;20102;-79
2022/06/17 06:12:53;;;;;;;24.35;7.40;;;;;;;23.13;47.75;100931.00;5115523;27;20015;-81
2022/06/17 06:15:14;;;;;;;31.92;8.18;;;;;;;23.22;47.12;100926.19;5133964;27;20019;-81
2022/06/17 06:17:39;;;;;;;25.15;6.32;;;;;;;23.16;46.49;100929.75;5134012;27;20019;-79
2022/06/17 06:20:05;;;;;;;18.45;6.28;;;;;;;23.31;46.00;100928.59;5133922;27;20071;-80
2022/06/17 06:22:31;;;;;;;18.55;6.95;;;;;;;23.39;44.60;100924.00;5133556;27;20023;-79
2022/06/17 06:24:56;;;;;;;11.70;4.28;;;;;;;23.40;42.28;100929.31;5133386;27;20019;-79
2022/06/17 06:27:22;;;;;;;16.42;4.72;;;;;;;23.52;42.47;100930.44;5133301;27;20038;-79
2022/06/17 06:29:47;;;;;;;43.92;7.00;;;;;;;23.50;43.28;100917.97;5133678;27;20011;-80
2022/06/17 06:32:14;;;;;;;7.78;3.30;;;;;;;23.53;43.79;100931.31;5133397;27;20023;-80
2022/06/17 06:34:39;;;;;;;13.43;3.63;;;;;;;23.64;44.39;100928.84;5134221;28;20030;-80
2022/06/17 06:37:04;;;;;;;11.07;3.25;;;;;;;23.62;44.12;100919.97;5133622;28;20425;-81
2022/06/17 06:39:30;;;;;;;8.85;3.08;;;;;;;23.65;43.95;100921.44;5134221;28;20030;-80
2022/06/17 06:41:55;;;;;;;12.60;3.05;;;;;;;23.67;44.93;100911.94;5115355;28;20476;-78
2022/06/17 06:44:21;;;;;;;12.93;3.38;;;;;;;23.68;45.96;100916.41;5133504;28;20047;-80
2022/06/17 06:46:46;;;;;;;18.35;3.55;;;;;;;23.75;48.75;100914.56;5134417;27;20031;-78
2022/06/17 06:49:12;;;;;;;12.95;3.60;;;;;;;23.73;49.46;100913.03;5133117;27;20027;-80
2022/06/17 06:51:37;;;;;;;16.55;4.22;;;;;;;23.68;50.75;100913.66;5101605;28;20539;-79
2022/06/17 06:54:03;;;;;;;18.38;3.78;;;;;;;23.72;52.16;100908.59;5099716;27;20024;-81
2022/06/17 06:56:29;;;;;;;12.18;3.75;;;;;;;23.71;52.11;100906.91;5122966;27;20440;-79
2022/06/17 06:58:54;;;;;;;24.27;3.75;;;;;;;23.77;52.21;100909.69;5137578;27;20051;-79
2022/06/17 07:01:20;;;;;;;15.30;3.17;;;;;;;23.85;53.85;100909.50;5119089;27;20019;-79
2022/06/17 07:03:45;;;;;;;26.58;4.05;;;;;;;23.90;55.01;100905.31;5116244;28;20024;-78
2022/06/17 07:06:12;;;;;;;8.15;2.97;;;;;;;23.98;55.69;100913.34;5117652;27;20034;-79
2022/06/17 07:08:38;;;;;;;12.57;3.50;;;;;;;24.04;55.80;100913.38;5137484;27;20023;-79
2022/06/17 07:11:06;;;;;;;9.40;3.40;;;;;;;24.02;55.30;100915.50;5137645;27;20519;-79
2022/06/17 07:13:32;;;;;;;18.65;4.80;;;;;;;23.91;54.07;100920.75;5137524;27;20019;-78
2022/06/17 07:15:58;;;;;;;12.95;3.60;;;;;;;24.03;53.55;100921.84;5137679;27;20016;-78
2022/06/17 07:18:30;;;;;;;7.80;2.85;;;;;;;24.07;52.06;100923.13;5135511;27;20019;-78
2022/06/17 07:20:58;;;;;;;12.80;4.00;;;;;;;24.10;52.18;100914.47;5137314;27;20481;-78
2022/06/17 07:23:34;;;;;;;5.18;1.90;;;;;;;24.13;47.63;100911.34;5118950;27;20035;-80
2022/06/17 07:26:02;;;;;;;8.52;2.38;;;;;;;24.07;47.89;100914.88;5137440;27;20026;-79
2022/06/17 07:28:28;;;;;;;9.63;3.08;;;;;;;24.12;48.20;100909.66;5137010;27;20023;-78
2022/06/17 07:30:55;;;;;;;17.08;2.40;;;;;;;24.21;46.62;100913.94;5118353;27;20391;-78
2022/06/17 07:33:23;;;;;;;9.73;2.92;;;;;;;24.24;44.24;100914.38;5113050;27;20023;-78
2022/06/17 07:35:55;;;;;;;17.42;2.92;;;;;;;24.37;44.29;100917.13;5137415;27;20031;-79
2022/06/17 07:41:13;;;;;;;12.23;2.65;;;;;;;24.49;42.69;100906.41;5136331;27;20059;-78
2022/06/17 07:43:39;;;;;;;21.95;3.03;;;;;;;24.58;40.90;100898.78;5136441;27;20051;-77
2022/06/17 07:46:06;;;;;;;15.43;2.13;;;;;;;24.68;41.54;100905.56;5136196;27;20024;-79
2022/06/17 07:48:32;;;;;;;10.40;2.40;;;;;;;24.78;40.93;100900.50;5135069;27;20038;-79
2022/06/17 07:50:58;;;;;;;4.90;1.70;;;;;;;24.78;40.42;100903.25;5136715;27;20015;-79
2022/06/17 07:53:26;;;;;;;8.65;2.53;;;;;;;24.88;40.84;100898.22;5118361;27;20412;-79
2022/06/17 07:55:53;;;;;;;9.35;2.13;;;;;;;24.85;41.76;100890.38;5117834;27;20055;-79
2022/06/17 07:58:19;;;;;;;10.63;3.13;;;;;;;24.94;41.82;100892.91;5117071;27;20412;-79
2022/06/17 08:00:46;;;;;;;21.40;3.00;;;;;;;25.03;40.03;100898.00;5136253;27;20161;-79
2022/06/17 08:03:14;;;;;;;9.30;1.85;;;;;;;25.02;38.76;100901.78;5135490;27;20031;-78
2022/06/17 08:05:42;;;;;;;9.43;2.10;;;;;;;25.11;38.59;100900.50;5135159;27;20022;-79
2022/06/17 08:08:09;;;;;;;9.52;2.38;;;;;;;25.16;38.53;100900.75;5135905;27;20027;-78
2022/06/17 08:10:36;;;;;;;8.13;2.22;;;;;;;25.03;37.11;100897.13;5117800;27;20016;-78
2022/06/17 08:13:06;;;;;;;13.65;2.92;;;;;;;25.05;36.90;100906.88;5136048;27;20027;-80
2022/06/17 08:15:33;;;;;;;23.15;2.97;;;;;;;25.10;38.46;100911.75;5136157;27;20076;-79
2022/06/17 08:17:59;;;;;;;12.23;2.05;;;;;;;25.12;40.28;100904.13;5135617;27;20023;-78
2022/06/17 08:20:28;;;;;;;11.02;2.33;;;;;;;25.00;41.86;100903.91;5117538;27;20076;-79
2022/06/17 08:22:54;;;;;;;9.68;1.80;;;;;;;25.03;41.80;100909.00;5134044;27;20038;-78
2022/06/17 08:25:20;;;;;;;9.98;2.35;;;;;;;25.04;44.01;100915.34;5117914;27;20023;-77
2022/06/17 08:27:48;;;;;;;5.18;2.40;;;;;;;25.05;41.45;100911.53;5135852;27;20015;-80
2022/06/17 08:30:14;;;;;;;7.28;1.88;;;;;;;25.07;38.99;100901.16;5118116;27;20051;-80
2022/06/17 08:32:48;;;;;;;12.80;3.55;;;;;;;25.07;39.67;100906.69;5115854;27;20027;-80
2022/06/17 08:35:16;;;;;;;4.78;1.80;;;;;;;25.08;38.57;100908.34;5136178;27;20098;-80
2022/06/17 08:37:44;;;;;;;3.88;1.67;;;;;;;25.14;38.62;100913.00;5135250;27;20075;-80
2022/06/17 08:40:29;;;;;;;10.05;1.83;;;;;;;25.18;39.18;100906.88;5135850;27;20024;-80
2022/06/17 08:43:14;;;;;;;10.68;3.20;;;;;;;25.23;40.44;100919.97;5116213;27;20119;-80
2022/06/17 08:45:58;;;;;;;23.10;2.90;;;;;;;25.34;41.26;100919.34;5114655;28;20027;-80
2022/06/17 08:48:48;;;;;;;14.43;2.50;;;;;;;25.58;41.13;100918.72;5129560;27;20476;-79
2022/06/17 08:51:18;;;;;;;10.82;2.28;;;;;;;25.72;41.95;100920.34;5134288;27;20060;-80
2022/06/17 08:53:51;;;;;;;6.45;1.50;;;;;;;25.52;39.14;100919.56;5123081;27;20031;-79
2022/06/17 08:56:32;;;;;;;15.80;1.95;;;;;;;25.58;40.14;100921.47;5128124;27;20083;-79
2022/06/17 08:59:08;;;;;;;15.32;4.07;;;;;;;25.63;40.63;100927.16;5135253;27;20027;-79
2022/06/17 09:02:21;;;;;;;10.73;2.28;;;;;;;25.70;39.31;100919.72;5133728;27;20027;-79
2022/06/17 09:05:08;;;;;;;6.45;1.52;;;;;;;25.69;38.72;100928.19;5047417;28;20124;-80
2022/06/17 09:07:56;;;;;;;4.25;2.05;;;;;;;25.73;39.68;100915.69;5117890;27;20050;-80
2022/06/17 09:10:31;;;;;;;5.47;2.30;;;;;;;25.88;40.30;100919.88;5127632;27;20200;-79
2022/06/17 09:13:25;;;;;;;4.35;1.30;;;;;;;25.83;40.66;100919.69;5117171;27;20026;-79
2022/06/17 09:16:11;;;;;;;6.20;2.08;;;;;;;25.83;41.81;100913.34;5126771;27;20031;-80
2022/06/17 09:18:40;;;;;;;4.63;1.70;;;;;;;25.70;42.18;100910.63;5116340;27;20069;-79
2022/06/17 09:21:21;;;;;;;15.73;2.08;;;;;;;25.64;42.08;100906.81;5122169;27;20084;-78
2022/06/17 09:23:47;;;;;;;5.65;1.95;;;;;;;25.66;42.64;100899.19;5130431;27;20023;-79
2022/06/17 09:26:24;;;;;;;6.70;1.55;;;;;;;25.62;41.49;100897.94;5135112;27;20420;-79
2022/06/17 09:28:58;;;;;;;8.60;1.88;;;;;;;25.57;40.67;100908.75;5135323;27;20020;-78
2022/06/17 09:31:38;;;;;;;20.23;2.15;;;;;;;25.64;40.49;100895.81;5113620;28;20429;-79
2022/06/17 09:34:40;;;;;;;10.20;2.53;;;;;;;25.44;39.04;100904.06;5113870;28;20416;-80
2022/06/17 09:37:16;;;;;;;8.38;1.52;;;;;;;25.48;41.56;100906.41;5111937;27;20024;-79
2022/06/17 09:40:09;;;;;;;10.48;1.63;;;;;;;25.48;41.09;100904.50;5114729;27;20052;-79
2022/06/17 09:42:47;;;;;;;5.75;1.63;;;;;;;25.51;42.20;100917.88;5109936;28;20038;-79
2022/06/17 09:45:20;;;;;;;16.05;3.08;;;;;;;25.63;41.23;100916.13;5114303;28;20389;-79
2022/06/17 09:47:57;;;;;;;5.47;1.90;;;;;;;25.56;40.85;100914.47;5134602;27;20031;-79
2022/06/17 09:50:30;;;;;;;11.60;2.67;;;;;;;25.75;42.68;100919.06;5135092;27;20034;-77
2022/06/17 09:53:27;;;;;;;6.47;1.80;;;;;;;25.82;43.58;100908.88;5131128;27;20176;-80
2022/06/17 09:56:01;;;;;;;10.32;2.38;;;;;;;25.81;44.33;100918.19;5096073;28;20066;-79
2022/06/17 09:58:49;;;;;;;21.10;2.40;;;;;;;25.89;43.90;100916.06;5114116;28;20024;-79
2022/06/17 10:01:15;;;;;;;7.93;1.73;;;;;;;25.82;43.67;100912.47;5120441;28;20497;-78
2022/06/17 10:03:41;;;;;;;21.52;2.65;;;;;;;25.81;45.05;100913.53;5121626;28;20039;-79
2022/06/17 10:06:15;;;;;;;13.70;2.17;;;;;;;25.97;44.25;100910.31;5126876;27;20031;-79
2022/06/17 10:08:44;;;;;;;7.20;2.33;;;;;;;26.08;43.71;100903.28;5123844;27;20115;-78
2022/06/17 10:11:54;;;;;;;7.78;2.00;;;;;;;25.99;44.07;100910.94;5117856;28;20477;-80
2022/06/17 10:14:47;;;;;;;12.90;1.95;;;;;;;26.26;44.29;100905.34;5055882;27;20053;-79
2022/06/17 10:20:26;;;;;;;11.35;2.20;;;;;;;26.48;42.41;100903.94;5137353;27;20464;-80
2022/06/17 10:23:19;;;;;;;15.73;2.05;;;;;;;26.69;43.92;100899.97;5135782;27;20454;-77
2022/06/17 10:26:06;;;;;;;19.83;2.30;;;;;;;26.71;44.16;100901.44;5114233;28;20080;-79
2022/06/17 10:29:11;;;;;;;10.38;1.92;;;;;;;26.81;43.88;100896.31;5114625;28;20049;-79
2022/06/17 10:31:39;;;;;;;14.10;2.70;;;;;;;26.83;44.42;100902.44;5114116;28;20466;-79
2022/06/17 10:34:21;;;;;;;6.07;2.00;;;;;;;26.58;45.05;100904.28;5114489;28;20051;-79
2022/06/17 10:36:49;;;;;;;6.38;2.30;;;;;;;26.40;43.37;100895.91;5114413;28;20044;-79
2022/06/17 10:39:17;;;;;;;13.23;1.85;;;;;;;26.57;43.29;100891.56;5113932;28;20030;-78
2022/06/17 10:41:43;;;;;;;7.50;1.50;;;;;;;26.60;42.02;100891.13;5113704;28;20080;-80
2022/06/17 10:44:11;;;;;;;7.10;1.73;;;;;;;26.68;44.75;100888.06;5113162;28;20051;-79
2022/06/17 10:46:41;;;;;;;28.15;3.72;;;;;;;26.65;43.03;100874.72;5113486;28;20143;-79
2022/06/17 10:49:29;;;;;;;11.55;2.33;;;;;;;26.65;42.37;100877.50;5112693;28;20450;-79
2022/06/17 10:51:57;;;;;;;23.90;2.50;;;;;;;26.72;44.18;100883.81;5113438;28;20070;-79
2022/06/17 10:54:34;;;;;;;31.40;4.28;;;;;;;26.76;42.28;100885.03;5113352;28;20055;-78
2022/06/17 10:57:11;;;;;;;21.67;2.58;;;;;;;26.90;44.72;100880.28;5113369;28;20015;-80
2022/06/17 10:59:42;;;;;;;16.52;2.90;;;;;;;26.94;43.85;100876.03;5095231;28;20050;-79
2022/06/17 11:02:29;;;;;;;14.50;4.20;;;;;;;27.14;45.22;100882.19;5133524;28;20020;-79
2022/06/17 11:05:00;;;;;;;10.35;2.30;;;;;;;27.02;45.35;100884.88;5134494;28;20023;-81
2022/06/17 11:07:33;;;;;;;4.90;2.20;;;;;;;26.98;41.49;100878.09;5133644;28;20023;-80
2022/06/17 11:10:06;;;;;;;10.25;2.72;;;;;;;27.08;43.09;100871.22;5133404;28;20098;-79
2022/06/17 11:12:37;;;;;;;8.70;1.48;;;;;;;26.99;43.08;100865.13;5132940;28;20044;-80
2022/06/17 11:15:27;;;;;;;4.50;1.30;;;;;;;27.07;43.82;100870.38;5133367;28;20030;-81
2022/06/17 11:17:58;;;;;;;8.82;2.03;;;;;;;27.10;44.36;100860.78;5133377;28;20448;-81
2022/06/17 11:20:30;;;;;;;7.72;2.15;;;;;;;27.17;44.27;100861.56;5133518;28;20015;-79
2022/06/17 11:22:59;;;;;;;7.30;1.67;;;;;;;27.17;43.65;100861.56;5133156;28;20026;-79
2022/06/17 11:25:34;;;;;;;10.95;2.53;;;;;;;27.26;44.51;100862.97;5132052;28;20027;-80
2022/06/17 11:28:12;;;;;;;7.80;1.65;;;;;;;27.32;42.81;100879.47;5133335;28;20039;-80
2022/06/17 11:30:53;;;;;;;13.20;2.20;;;;;;;27.30;43.21;100870.56;5113922;28;20016;-80
2022/06/17 11:33:27;;;;;;;6.25;1.30;;;;;;;27.35;41.58;100873.50;5136078;27;20023;-80
2022/06/17 11:36:06;;;;;;;11.20;1.80;;;;;;;27.31;42.58;100872.25;5125007;27;20035;-79
2022/06/17 11:38:34;;;;;;;4.95;3.00;;;;;;;27.24;42.30;100862.34;5134723;27;20031;-79
2022/06/17 11:41:01;;;;;;;6.97;1.75;;;;;;;27.08;41.32;100873.97;5136612;27;20114;-79
2022/06/17 11:43:43;;;;;;;12.52;1.88;;;;;;;27.17;41.43;100865.19;5136080;27;20085;-78
2022/06/17 11:46:15;;;;;;;2.15;1.20;;;;;;;27.18;41.81;100871.56;5117702;27;20469;-79
2022/06/17 11:48:44;;;;;;;14.98;2.72;;;;;;;27.31;42.17;100865.88;5136274;27;20106;-83